createdAt,value
2023-02-21T00:01:00.718Z,15.02
2023-02-21T00:03:47.148Z,12.50
2023-02-21T00:06:32.826Z,11.48
2023-02-21T00:09:18.689Z,11.02
2023-02-21T00:12:04.124Z,13.93
2023-02-21T00:14:49.988Z,12.50
2023-02-21T00:17:35.876Z,13.02
2023-02-21T00:20:22.238Z,11.07
2023-02-21T00:23:07.719Z,9.88
2023-02-21T00:25:54.106Z,10.77
2023-02-21T00:28:39.793Z,24.05
2023-02-21T00:31:26.280Z,27.83
2023-02-21T00:34:12.100Z,40.75
2023-02-21T00:36:58.944Z,33.05
2023-02-21T00:39:44.902Z,21.20
2023-02-21T00:42:31.240Z,14.55
2023-02-21T00:45:16.522Z,13.00
2023-02-21T00:48:02.320Z,28.05
2023-02-21T00:50:47.945Z,18.05
2023-02-21T00:53:33.513Z,13.40
2023-02-21T00:56:19.301Z,12.90
2023-02-21T00:59:05.337Z,12.35
2023-02-21T01:01:51.354Z,8.50
2023-02-21T01:04:37.299Z,8.82
2023-02-21T01:07:23.024Z,9.07
2023-02-21T01:10:09.365Z,8.65
2023-02-21T01:12:55.138Z,8.15
2023-02-21T01:15:42.957Z,7.45
2023-02-21T01:18:28.761Z,7.53
2023-02-21T01:21:14.933Z,7.78
2023-02-21T01:24:01.018Z,8.32
2023-02-21T01:26:47.341Z,9.05
2023-02-21T01:29:32.817Z,9.20
2023-02-21T01:32:18.703Z,22.60
2023-02-21T01:35:04.346Z,20.25
2023-02-21T01:37:50.182Z,18.62
2023-02-21T01:40:36.075Z,19.60
2023-02-21T01:43:38.218Z,15.32
2023-02-21T01:46:24.776Z,16.27
2023-02-21T01:49:13.224Z,11.25
2023-02-21T01:52:01.061Z,7.03
2023-02-21T01:54:51.442Z,10.35
2023-02-21T01:57:38.035Z,19.52
2023-02-21T02:00:27.464Z,23.35
2023-02-21T02:03:15.768Z,29.58
2023-02-21T02:06:08.350Z,14.35
2023-02-21T02:08:54.828Z,15.80
2023-02-21T02:12:17.668Z,9.88
2023-02-21T02:14:57.633Z,8.25
2023-02-21T02:17:37.816Z,6.53
2023-02-21T02:20:33.186Z,5.97
2023-02-21T02:23:28.390Z,5.00
2023-02-21T02:26:09.430Z,4.32
2023-02-21T02:28:55.404Z,4.57
2023-02-21T02:31:57.211Z,4.55
2023-02-21T02:34:45.205Z,4.45
2023-02-21T02:37:42.394Z,3.92
2023-02-21T02:40:28.234Z,3.53
2023-02-21T02:45:26.384Z,3.60
2023-02-21T02:48:00.021Z,3.10
2023-02-21T02:50:29.735Z,3.08
2023-02-21T02:53:01.973Z,3.03
2023-02-21T02:55:43.547Z,3.17
2023-02-21T02:58:12.684Z,2.45
2023-02-21T03:00:43.428Z,2.22
2023-02-21T03:03:34.232Z,2.58
2023-02-21T03:06:09.856Z,2.22
2023-02-21T03:08:44.322Z,2.33
2023-02-21T03:11:19.027Z,1.92
2023-02-21T03:16:18.166Z,1.75
2023-02-21T03:18:50.822Z,2.00
2023-02-21T03:21:22.218Z,2.28
2023-02-21T03:23:51.975Z,2.08
2023-02-21T03:26:20.019Z,1.30
2023-02-21T03:28:47.966Z,1.50
2023-02-21T03:31:17.348Z,1.87
2023-02-21T03:33:45.367Z,1.70
2023-02-21T03:36:12.817Z,1.58
2023-02-21T03:38:41.191Z,1.70
2023-02-21T03:41:09.777Z,1.90
2023-02-21T03:43:37.086Z,1.85
2023-02-21T03:46:04.485Z,1.87
2023-02-21T03:48:32.914Z,1.98
2023-02-21T03:51:01.089Z,1.75
2023-02-21T03:53:28.964Z,1.73
2023-02-21T03:55:56.615Z,1.60
2023-02-21T03:58:24.413Z,1.35
2023-02-21T04:00:53.908Z,1.48
2023-02-21T04:03:21.791Z,1.87
2023-02-21T04:05:52.784Z,2.10
2023-02-21T04:08:22.184Z,1.80
2023-02-21T04:10:52.456Z,1.70
2023-02-21T04:13:21.170Z,2.95
2023-02-21T04:15:48.788Z,2.60
2023-02-21T04:18:17.127Z,2.22
2023-02-21T04:20:46.825Z,1.70
2023-02-21T04:23:18.903Z,1.75
2023-02-21T04:25:46.961Z,1.90
2023-02-21T04:28:15.027Z,1.95
2023-02-21T04:30:42.611Z,1.95
2023-02-21T04:33:10.080Z,2.35
2023-02-21T04:35:37.386Z,3.15
2023-02-21T04:38:06.143Z,3.42
2023-02-21T04:40:33.574Z,2.45
2023-02-21T04:43:00.661Z,1.65
2023-02-21T04:45:27.892Z,1.92
2023-02-21T04:47:55.408Z,1.65
2023-02-21T04:50:22.557Z,1.70
2023-02-21T04:52:50.253Z,1.65
2023-02-21T04:55:17.844Z,2.12
2023-02-21T04:57:45.062Z,2.00
2023-02-21T05:00:13.047Z,2.25
2023-02-21T05:02:43.298Z,2.53
2023-02-21T05:05:10.999Z,1.87
2023-02-21T05:07:38.442Z,2.17
2023-02-21T05:10:06.177Z,2.15
2023-02-21T05:12:33.310Z,2.67
2023-02-21T05:15:00.481Z,1.87
2023-02-21T05:17:28.026Z,1.83
2023-02-21T05:19:55.324Z,2.42
2023-02-21T05:22:22.698Z,3.30
2023-02-21T05:24:50.219Z,2.20
2023-02-21T05:27:19.625Z,2.10
2023-02-21T05:29:51.531Z,2.03
2023-02-21T05:32:21.519Z,2.22
2023-02-21T05:34:48.731Z,2.08
2023-02-21T05:37:17.616Z,3.22
2023-02-21T05:39:45.039Z,3.03
2023-02-21T05:42:12.201Z,3.55
2023-02-21T05:44:39.422Z,7.95
2023-02-21T05:47:07.268Z,11.77
2023-02-21T05:49:34.470Z,5.70
2023-02-21T05:52:01.607Z,3.62
2023-02-21T05:54:28.976Z,5.12
2023-02-21T05:56:56.131Z,5.00
2023-02-21T05:59:23.486Z,5.37
2023-02-21T06:01:51.196Z,4.78
2023-02-21T06:04:18.792Z,2.78
2023-02-21T06:06:46.167Z,4.43
2023-02-21T06:09:13.506Z,4.82
2023-02-21T06:11:40.962Z,15.27
2023-02-21T06:14:14.652Z,16.10
2023-02-21T06:16:42.093Z,5.20
2023-02-21T06:19:10.237Z,15.88
2023-02-21T06:21:37.459Z,22.02
2023-02-21T06:24:05.075Z,17.25
2023-02-21T06:26:32.778Z,12.20
2023-02-21T06:28:59.996Z,14.87
2023-02-21T06:31:27.563Z,57.83
2023-02-21T06:33:54.766Z,17.90
2023-02-21T06:36:24.075Z,13.88
2023-02-21T06:38:53.753Z,6.57
2023-02-21T06:41:24.639Z,10.65
2023-02-21T06:43:53.848Z,10.90
2023-02-21T06:46:23.923Z,5.82
2023-02-21T06:48:51.765Z,6.43
2023-02-21T06:51:19.429Z,4.97
2023-02-21T06:53:50.004Z,5.97
2023-02-21T06:56:17.581Z,5.12
2023-02-21T06:58:44.809Z,3.25
2023-02-21T07:01:12.124Z,5.05
2023-02-21T07:03:44.315Z,4.50
2023-02-21T07:06:11.607Z,4.10
2023-02-21T07:08:38.835Z,3.72
2023-02-21T07:11:06.442Z,2.45
2023-02-21T07:13:33.998Z,2.05
2023-02-21T07:16:02.371Z,2.17
2023-02-21T07:18:29.827Z,1.95
2023-02-21T07:20:57.518Z,1.85
2023-02-21T07:23:24.632Z,2.10
2023-02-21T07:25:52.187Z,1.73
2023-02-21T07:28:19.508Z,2.10
2023-02-21T07:30:47.374Z,2.05
2023-02-21T07:33:14.885Z,2.15
2023-02-21T07:35:42.114Z,2.17
2023-02-21T07:38:09.366Z,2.37
2023-02-21T07:40:36.760Z,1.75
2023-02-21T07:43:03.864Z,2.70
2023-02-21T07:45:30.909Z,1.87
2023-02-21T07:47:58.347Z,2.33
2023-02-21T07:50:25.585Z,1.58
2023-02-21T07:52:52.961Z,4.03
2023-02-21T07:55:21.785Z,1.70
2023-02-21T07:57:48.896Z,2.72
2023-02-21T08:00:16.255Z,1.70
2023-02-21T08:02:50.899Z,2.17
2023-02-21T08:07:46.622Z,2.47
2023-02-21T08:10:21.141Z,1.83
2023-02-21T08:12:48.987Z,1.90
2023-02-21T08:15:16.152Z,1.55
2023-02-21T08:17:43.433Z,1.33
2023-02-21T08:20:11.188Z,1.83
2023-02-21T08:22:38.339Z,1.60
2023-02-21T08:25:05.768Z,1.75
2023-02-21T08:27:33.208Z,2.55
2023-02-21T08:30:00.398Z,1.77
2023-02-21T08:32:27.718Z,1.70
2023-02-21T08:34:55.172Z,1.70
2023-02-21T08:37:22.326Z,1.92
2023-02-21T08:39:52.114Z,1.37
2023-02-21T08:42:20.149Z,1.75
2023-02-21T08:44:47.763Z,1.62
2023-02-21T08:47:16.021Z,1.65
2023-02-21T08:49:47.639Z,1.80
2023-02-21T08:52:19.329Z,1.65
2023-02-21T08:54:46.810Z,1.45
2023-02-21T08:57:14.954Z,1.50
2023-02-21T08:59:43.304Z,1.15
2023-02-21T09:02:22.663Z,1.27
2023-02-21T09:04:49.875Z,0.93
2023-02-21T09:07:19.566Z,1.45
2023-02-21T09:09:47.611Z,1.30
2023-02-21T09:12:15.287Z,1.85
2023-02-21T09:14:43.859Z,1.50
2023-02-21T09:17:13.357Z,1.67
2023-02-21T09:19:41.303Z,1.50
2023-02-21T09:22:09.717Z,1.60
2023-02-21T09:24:37.786Z,1.52
2023-02-21T09:27:05.835Z,2.08
2023-02-21T09:29:45.311Z,1.65
2023-02-21T09:32:14.235Z,1.87
2023-02-21T09:34:41.781Z,1.90
2023-02-21T09:37:08.897Z,2.40
2023-02-21T09:39:39.219Z,1.70
2023-02-21T09:42:06.814Z,1.90
2023-02-21T09:44:34.751Z,2.03
2023-02-21T09:47:04.950Z,1.52
2023-02-21T09:49:41.250Z,2.00
2023-02-21T09:52:20.793Z,1.77
2023-02-21T09:54:52.573Z,2.00
2023-02-21T09:57:19.720Z,2.10
2023-02-21T09:59:48.675Z,2.12
2023-02-21T10:02:19.192Z,1.87
2023-02-21T10:05:08.213Z,2.35
2023-02-21T10:07:54.342Z,2.00
2023-02-21T10:10:25.694Z,2.00
2023-02-21T10:13:07.987Z,1.85
2023-02-21T10:15:46.035Z,2.25
2023-02-21T10:18:37.121Z,2.30
2023-02-21T10:21:15.264Z,2.15
2023-02-21T10:23:46.828Z,2.30
2023-02-21T10:26:20.407Z,1.83
2023-02-21T10:28:47.762Z,1.62
2023-02-21T10:31:37.216Z,1.77
2023-02-21T10:34:07.508Z,1.80
2023-02-21T10:36:35.456Z,2.03
2023-02-21T10:39:21.889Z,1.95
2023-02-21T10:41:50.994Z,1.37
2023-02-21T10:44:26.989Z,1.73
2023-02-21T10:47:00.890Z,1.80
2023-02-21T10:49:31.335Z,2.05
2023-02-21T10:52:21.096Z,1.65
2023-02-21T10:55:32.235Z,1.60
2023-02-21T10:58:11.696Z,1.87
2023-02-21T11:00:48.001Z,1.70
2023-02-21T11:03:18.762Z,1.50
2023-02-21T11:05:53.732Z,1.75
2023-02-21T11:08:53.637Z,1.75
2023-02-21T11:11:40.655Z,1.95
2023-02-21T11:14:17.192Z,2.12
2023-02-21T11:16:44.614Z,2.00
2023-02-21T11:19:16.381Z,1.60
2023-02-21T11:21:45.312Z,1.52
2023-02-21T11:24:12.961Z,1.62
2023-02-21T11:26:50.977Z,1.73
2023-02-21T11:29:23.008Z,1.45
2023-02-21T11:31:52.677Z,1.98
2023-02-21T11:34:20.374Z,2.00
2023-02-21T11:36:49.571Z,1.80
2023-02-21T11:39:32.475Z,1.75
2023-02-21T11:42:06.844Z,1.30
2023-02-21T11:44:39.755Z,1.62
2023-02-21T11:47:25.896Z,1.80
2023-02-21T11:50:25.582Z,1.95
2023-02-21T11:53:13.369Z,1.50
2023-02-21T11:55:42.595Z,1.90
2023-02-21T11:58:23.350Z,1.55
2023-02-21T12:01:05.699Z,1.30
2023-02-21T12:03:41.822Z,1.75
2023-02-21T12:06:15.845Z,1.77
2023-02-21T12:08:59.337Z,1.45
2023-02-21T12:11:49.028Z,1.37
2023-02-21T12:14:22.946Z,1.37
2023-02-21T12:17:23.744Z,1.67
2023-02-21T12:20:01.913Z,1.95
2023-02-21T12:22:47.339Z,1.65
2023-02-21T12:25:17.850Z,1.30
2023-02-21T12:27:57.875Z,1.20
2023-02-21T12:30:52.139Z,1.83
2023-02-21T12:33:34.576Z,2.17
2023-02-21T12:36:32.701Z,1.90
2023-02-21T12:39:14.923Z,1.80
2023-02-21T12:42:19.273Z,1.67
2023-02-21T12:45:07.579Z,4.03
2023-02-21T12:47:51.166Z,1.67
2023-02-21T12:50:25.103Z,2.05
2023-02-21T12:55:40.815Z,1.40
2023-02-21T12:58:30.120Z,1.60
2023-02-21T13:01:02.834Z,1.90
2023-02-21T13:03:45.701Z,1.62
2023-02-21T13:06:18.887Z,1.45
2023-02-21T13:08:55.521Z,1.60
2023-02-21T13:11:32.228Z,2.10
2023-02-21T13:14:00.846Z,2.10
2023-02-21T13:16:28.167Z,1.85
2023-02-21T13:18:59.567Z,2.42
2023-02-21T13:21:42.157Z,3.10
2023-02-21T13:24:37.702Z,1.70
2023-02-21T13:27:43.007Z,2.00
2023-02-21T13:30:13.565Z,2.28
2023-02-21T13:32:51.953Z,1.70
2023-02-21T13:35:22.319Z,2.00
2023-02-21T13:37:51.257Z,1.40
2023-02-21T13:40:32.848Z,1.90
2023-02-21T13:43:04.555Z,1.40
2023-02-21T13:45:32.657Z,2.03
2023-02-21T13:48:00.187Z,1.58
2023-02-21T13:50:40.141Z,1.55
2023-02-21T13:53:56.948Z,2.00
2023-02-21T13:56:43.528Z,1.90
2023-02-21T13:59:22.862Z,1.70
2023-02-21T14:01:50.513Z,2.35
2023-02-21T14:04:55.299Z,1.55
2023-02-21T14:07:45.437Z,1.95
2023-02-21T14:10:39.110Z,1.65
2023-02-21T14:13:21.380Z,1.80
2023-02-21T14:15:57.257Z,2.55
2023-02-21T14:18:31.609Z,1.40
2023-02-21T14:20:59.546Z,1.80
2023-02-21T14:23:42.893Z,2.28
2023-02-21T14:26:37.575Z,1.83
2023-02-21T14:29:07.584Z,3.40
2023-02-21T14:31:48.949Z,1.70
2023-02-21T14:34:28.414Z,1.98
2023-02-21T14:36:59.469Z,1.37
2023-02-21T14:39:33.690Z,1.70
2023-02-21T14:42:23.377Z,1.48
2023-02-21T14:45:10.729Z,1.60
2023-02-21T14:47:53.266Z,1.90
2023-02-21T14:50:50.743Z,1.67
2023-02-21T14:53:52.576Z,1.48
2023-02-21T14:56:46.007Z,1.45
2023-02-21T14:59:42.626Z,1.70
2023-02-21T15:02:30.071Z,1.17
2023-02-21T15:05:14.451Z,1.30
2023-02-21T15:07:47.900Z,1.30
2023-02-21T15:10:15.247Z,1.25
2023-02-21T15:12:46.644Z,1.30
2023-02-21T15:15:23.691Z,1.12
2023-02-21T15:18:06.146Z,1.00
2023-02-21T15:20:35.923Z,1.65
2023-02-21T15:23:14.933Z,1.40
2023-02-21T15:25:43.791Z,1.35
2023-02-21T15:28:21.779Z,1.10
2023-02-21T15:31:22.039Z,1.27
2023-02-21T15:33:52.349Z,0.82
2023-02-21T15:36:21.899Z,1.20
2023-02-21T15:38:55.207Z,0.90
2023-02-21T15:41:45.882Z,2.00
2023-02-21T15:44:33.509Z,1.50
2023-02-21T15:47:14.025Z,2.03
2023-02-21T15:49:45.353Z,1.67
2023-02-21T15:52:42.012Z,1.52
2023-02-21T15:55:19.424Z,1.37
2023-02-21T15:57:58.833Z,0.95
2023-02-21T16:00:30.698Z,1.35
2023-02-21T16:03:29.393Z,1.30
2023-02-21T16:06:08.561Z,2.40
2023-02-21T16:08:37.927Z,2.42
2023-02-21T16:11:05.334Z,2.22
2023-02-21T16:13:39.621Z,2.75
2023-02-21T16:16:08.390Z,3.97
2023-02-21T16:18:35.745Z,3.10
2023-02-21T16:21:07.251Z,3.85
2023-02-21T16:23:35.859Z,3.37
2023-02-21T16:26:16.658Z,5.57
2023-02-21T16:28:45.693Z,3.03
2023-02-21T16:31:24.236Z,4.37
2023-02-21T16:33:51.850Z,4.90
2023-02-21T16:36:24.787Z,14.60
2023-02-21T16:38:52.269Z,5.65
2023-02-21T16:41:19.504Z,5.12
2023-02-21T16:43:47.275Z,5.37
2023-02-21T16:46:15.538Z,3.95
2023-02-21T16:48:42.755Z,5.87
2023-02-21T16:51:18.091Z,8.13
2023-02-21T16:53:46.951Z,6.10
2023-02-21T16:56:14.611Z,14.00
2023-02-21T16:58:49.967Z,12.57
2023-02-21T17:01:36.570Z,5.57
2023-02-21T17:04:06.747Z,7.97
2023-02-21T17:06:34.588Z,8.63
2023-02-21T17:09:01.810Z,7.12
2023-02-21T17:11:29.113Z,6.65
2023-02-21T17:13:56.523Z,8.52
2023-02-21T17:16:23.758Z,12.77
2023-02-21T17:18:50.914Z,15.02
2023-02-21T17:21:18.600Z,13.25
2023-02-21T17:23:45.885Z,13.05
2023-02-21T17:26:13.192Z,15.68
2023-02-21T17:28:40.702Z,10.18
2023-02-21T17:31:07.865Z,13.52
2023-02-21T17:33:35.672Z,13.68
2023-02-21T17:36:03.199Z,17.75
2023-02-21T17:38:30.290Z,18.48
2023-02-21T17:40:57.663Z,13.95
2023-02-21T17:43:25.059Z,11.05
2023-02-21T17:45:52.230Z,13.18
2023-02-21T17:48:19.374Z,9.45
2023-02-21T17:50:46.791Z,9.02
2023-02-21T17:53:13.859Z,8.98
2023-02-21T17:55:40.954Z,11.95
2023-02-21T17:58:09.740Z,8.68
2023-02-21T18:00:39.288Z,7.37
2023-02-21T18:03:07.615Z,7.40
2023-02-21T18:05:36.035Z,9.50
2023-02-21T18:08:03.826Z,5.72
2023-02-21T18:10:31.238Z,4.47
2023-02-21T18:12:58.363Z,3.30
2023-02-21T18:15:27.709Z,3.83
2023-02-21T18:17:55.577Z,6.85
2023-02-21T18:20:22.838Z,4.87
2023-02-21T18:22:49.978Z,6.07
2023-02-21T18:25:18.293Z,7.75
2023-02-21T18:27:45.368Z,7.43
2023-02-21T18:30:12.910Z,7.72
2023-02-21T18:32:40.333Z,7.55
2023-02-21T18:35:07.569Z,7.72
2023-02-21T18:37:35.549Z,7.95
2023-02-21T18:40:04.975Z,7.00
2023-02-21T18:42:32.190Z,6.70
2023-02-21T18:44:59.326Z,9.27
2023-02-21T18:47:27.024Z,9.70
2023-02-21T18:49:56.607Z,11.52
2023-02-21T18:52:23.818Z,8.43
2023-02-21T18:54:51.673Z,9.05
2023-02-21T18:57:20.477Z,7.82
2023-02-21T18:59:47.685Z,9.23
2023-02-21T19:02:17.603Z,8.88
2023-02-21T19:04:45.286Z,10.02
2023-02-21T19:07:13.799Z,7.68
2023-02-21T19:09:41.287Z,6.37
2023-02-21T19:12:08.593Z,8.07
2023-02-21T19:14:36.068Z,7.22
2023-02-21T19:17:05.738Z,7.57
2023-02-21T19:19:35.283Z,7.87
2023-02-21T19:22:02.739Z,7.50
2023-02-21T19:24:30.196Z,8.05
2023-02-21T19:26:57.386Z,7.57
2023-02-21T19:29:24.727Z,7.93
2023-02-21T19:31:52.257Z,7.70
2023-02-21T19:34:20.132Z,5.85
2023-02-21T19:36:47.255Z,6.22
2023-02-21T19:39:14.680Z,5.62
2023-02-21T19:41:41.871Z,5.35
2023-02-21T19:44:09.155Z,5.15
2023-02-21T19:46:36.625Z,4.90
2023-02-21T19:49:07.038Z,6.50
2023-02-21T19:51:34.584Z,6.12
2023-02-21T19:54:02.074Z,6.30
2023-02-21T19:56:31.948Z,7.18
2023-02-21T19:58:59.637Z,6.95
2023-02-21T20:01:28.957Z,8.15
2023-02-21T20:03:56.488Z,6.82
2023-02-21T20:06:24.783Z,6.40
2023-02-21T20:08:55.583Z,8.20
2023-02-21T20:11:24.288Z,7.60
2023-02-21T20:13:51.468Z,6.82
2023-02-21T20:16:20.355Z,7.43
2023-02-21T20:18:49.676Z,6.87
2023-02-21T20:21:24.940Z,6.72
2023-02-21T20:23:53.553Z,7.45
2023-02-21T20:26:23.290Z,6.25
2023-02-21T20:28:51.241Z,5.22
2023-02-21T20:31:20.441Z,5.55
2023-02-21T20:33:48.106Z,5.43
2023-02-21T20:36:15.597Z,5.55
2023-02-21T20:38:43.932Z,4.95
2023-02-21T20:41:13.755Z,4.60
2023-02-21T20:43:41.339Z,4.78
2023-02-21T20:46:11.758Z,4.53
2023-02-21T20:48:39.042Z,5.07
2023-02-21T20:51:06.513Z,5.22
2023-02-21T20:53:36.657Z,5.07
2023-02-21T20:56:05.117Z,4.32
2023-02-21T20:58:32.249Z,4.15
2023-02-21T21:00:59.705Z,4.78
2023-02-21T21:03:29.533Z,6.32
2023-02-21T21:05:57.007Z,5.50
2023-02-21T21:08:24.464Z,5.28
2023-02-21T21:10:51.596Z,6.35
2023-02-21T21:13:18.679Z,7.78
2023-02-21T21:15:46.169Z,7.32
2023-02-21T21:18:13.308Z,7.50
2023-02-21T21:20:41.355Z,8.38
2023-02-21T21:23:08.804Z,6.97
2023-02-21T21:25:36.030Z,8.95
2023-02-21T21:28:06.438Z,8.93
2023-02-21T21:30:36.146Z,8.98
2023-02-21T21:33:07.398Z,10.02
2023-02-21T21:35:37.105Z,10.10
2023-02-21T21:38:07.241Z,9.68
2023-02-21T21:40:34.619Z,12.45
2023-02-21T21:43:02.618Z,11.30
2023-02-21T21:45:30.605Z,10.50
2023-02-21T21:47:58.643Z,10.27
2023-02-21T21:50:26.185Z,10.82
2023-02-21T21:52:57.391Z,11.12
2023-02-21T21:55:27.496Z,19.55
2023-02-21T21:57:55.940Z,9.20
2023-02-21T22:00:26.074Z,9.75
2023-02-21T22:02:59.564Z,8.07
2023-02-21T22:05:28.740Z,8.32
2023-02-21T22:07:56.609Z,8.57
2023-02-21T22:10:24.913Z,9.55
2023-02-21T22:12:53.434Z,6.40
2023-02-21T22:15:25.723Z,6.82
2023-02-21T22:17:53.388Z,5.50
2023-02-21T22:20:28.349Z,4.12
2023-02-21T22:22:59.319Z,4.53
2023-02-21T22:25:27.924Z,4.15
2023-02-21T22:27:55.038Z,3.17
2023-02-21T22:30:22.715Z,4.32
2023-02-21T22:32:50.348Z,4.03
2023-02-21T22:35:19.195Z,4.68
2023-02-21T22:37:51.779Z,4.25
2023-02-21T22:40:25.391Z,8.20
2023-02-21T22:42:54.372Z,8.97
2023-02-21T22:45:23.188Z,9.90
2023-02-21T22:47:51.969Z,8.63
2023-02-21T22:50:22.641Z,6.72
2023-02-21T22:52:54.833Z,7.90
2023-02-21T22:55:25.050Z,13.55
2023-02-21T22:57:53.952Z,16.65
2023-02-21T23:00:27.307Z,17.05
2023-02-21T23:02:54.699Z,15.23
2023-02-21T23:05:22.081Z,33.42
2023-02-21T23:07:51.271Z,24.42
2023-02-21T23:10:23.589Z,15.93
2023-02-21T23:12:52.816Z,27.77
2023-02-21T23:15:21.030Z,32.15
2023-02-21T23:17:49.586Z,11.50
2023-02-21T23:20:22.214Z,22.08
2023-02-21T23:22:52.705Z,18.37
2023-02-21T23:25:25.600Z,14.98
2023-02-21T23:27:56.116Z,6.37
2023-02-21T23:30:36.328Z,8.50
2023-02-21T23:33:06.336Z,7.60
2023-02-21T23:35:34.897Z,6.43
2023-02-21T23:38:02.492Z,5.85
2023-02-21T23:40:32.626Z,6.18
2023-02-21T23:43:00.987Z,4.97
2023-02-21T23:45:28.432Z,4.53
2023-02-21T23:47:56.092Z,3.80
2023-02-21T23:50:30.388Z,4.15
2023-02-21T23:53:02.492Z,4.25
2023-02-21T23:55:30.047Z,4.95
2023-02-21T23:58:03.549Z,4.93
